Latest Conditions
At L.F.Wade Int. Airport
Recorded at 1:55 pm
Few Clouds
Temp.: 
28°C/82°F
Humidity: 
81%
Wind: 
S 9KT
or 10mph
Island Observations
 
Observations
Friday, September 18, 2020

Observations are in local time and taken at least once an hour, or upon the start and end of specified events such as showers and thunderstorms.

Time Sky / Weather Wind Speed/Gusts Temp. R.H. Pressure
     knots (mph)  °C (°F)  %  mb / "Hg
 13:55 Few Clouds  S 9/0 (10/0) 28(82) 81 1017 / 30.03
 12:55 Few Clouds  SSE 10/0 (12/0) 28(82) 81 1017 / 30.04
 11:55 Few Clouds  SSE 10/0 (12/0) 27(81) 81 1017 / 30.04
 11:08 Partly Cloudy  SSE 9/0 (10/0) 27(81) 82 1017 / 30.04
 10:55 Mostly Cloudy  SSE 9/0 (10/0) 27(81) 82 1018 / 30.05
 09:55 Few Clouds  SSE 10/0 (12/0) 27(80) 82 1017 / 30.04
 08:55 Partly Cloudy  SSE 8/0 (9/0) 26(79) 84 1017 / 30.04
 07:55 Few Clouds  SSE 7/0 (8/0) 26(78) 86 1018 / 30.05
 06:55 Few Clouds  S 6/0 (7/0) 26(78) 87 1018 / 30.05
 05:55 Partly Cloudy  S 7/0 (8/0) 26(78) 87 1017 / 30.04
 04:55 Partly Cloudy  S 6/0 (7/0) 26(78) 87 1017 / 30.04
 03:55 Partly Cloudy  SSE 9/0 (10/0) 26(78) 87 1017 / 30.04
 02:55 Partly Cloudy  SSE 9/0 (10/0) 26(78) 86 1018 / 30.05
 01:55 Few Clouds  SSE 8/0 (9/0) 26(78) 87 1018 / 30.07
 00:55 Few Clouds  SSE 7/0 (8/0) 26(78) 86 1019 / 30.08
 23:55 Few Clouds  SSE 8/0 (9/0) 26(78) 86 1019 / 30.09
 22:55 Few Clouds  SE 8/0 (9/0) 26(78) 87 1019 / 30.09
 21:55 Few Clouds  SSE 7/0 (8/0) 26(79) 87 1019 / 30.09
 20:55 Partly Cloudy  SSE 6/0 (7/0) 26(79) 85 1019 / 30.08
 19:55 Few Clouds  SSE 7/0 (8/0) 26(79) 85 1018 / 30.07
 18:55 Partly Cloudy  SSE 7/0 (8/0) 26(79) 84 1018 / 30.07
 17:55 Few Clouds  SSE 8/0 (9/0) 27(80) 81 1018 / 30.06
 16:55 Few Clouds  SSE 8/0 (9/0) 27(81) 81 1018 / 30.06
 15:55 Few Clouds  SSE 7/0 (8/0) 28(82) 81 1018 / 30.07
 14:55 Few Clouds  SE 7/0 (8/0) 27(81) 81 1019 / 30.09
 13:55 Few Clouds  SE 8/0 (9/0) 28(82) 81 1019 / 30.10
 12:55 Few Clouds  SSE 7/0 (8/0) 28(82) 83 1020 / 30.12
 11:55 Few Clouds  SE 7/0 (8/0) 27(81) 82 1021 / 30.14
 10:55 Few Clouds  SSE 6/0 (7/0) 27(81) 83 1021 / 30.14
 09:55 Partly Cloudy  SSE 5/0 (6/0) 27(80) 85 1020 / 30.13
 08:55 Few Clouds  SSE 6/0 (7/0) 26(79) 88 1020 / 30.11
 07:55 Few Clouds  SSE 6/0 (7/0) 26(78) 90 1019 / 30.10
 07:09 Partly Cloudy Showers SE 5/0 (6/0) 25(77) 91 1019 / 30.09
 06:55 Mostly Cloudy Showers SSE 7/0 (8/0) 24(76) 90 1019 / 30.09
 06:44 Mostly Cloudy Showers SSE 7/0 (8/0) 24(76) 91 1019 / 30.09
 06:35 Mostly Cloudy Showers SSE 10/0 (12/0) 24(76) 88 1019 / 30.10
 05:55 Partly Cloudy Showers SE 7/0 (8/0) 26(78) 89 1019 / 30.09
 04:55 Partly Cloudy Showers ESE 7/0 (8/0) 25(78) 89 1019 / 30.09
 03:55 Mostly Cloudy Showers E 6/0 (7/0) 25(77) 92 1019 / 30.10
 03:15 Partly Cloudy Showers E 6/0 (7/0) 25(77) 92 1020 / 30.11
 02:55 Mostly Cloudy Showers E 9/0 (10/0) 25(77) 92 1020 / 30.12
 02:29 Mostly Cloudy Showers SE 7/0 (8/0) 25(78) 90 1020 / 30.12
 01:55 Partly Cloudy Showers E 9/0 (10/0) 26(78) 87 1020 / 30.13
 00:55 Partly Cloudy Showers E 9/0 (10/0) 26(78) 87 1021 / 30.15
 23:55 Partly Cloudy  E 9/0 (10/0) 26(78) 87 1021 / 30.15
 22:55 Partly Cloudy Showers E 11/0 (13/0) 26(79) 85 1021 / 30.14
 21:55 Partly Cloudy  E 8/0 (9/0) 26(78) 84 1021 / 30.14
 20:55 Mostly Cloudy Showers E 9/0 (10/0) 26(78) 88 1020 / 30.13
 20:12 Mostly Cloudy Showers E 10/0 (12/0) 26(79) 86 1020 / 30.12
 19:55 Mostly Cloudy Showers E 10/0 (12/0) 26(79) 86 1020 / 30.11
 18:55 Mostly Cloudy Showers ENE 11/0 (13/0) 26(78) 86 1020 / 30.11
 17:55 Mostly Cloudy Showers E 10/0 (12/0) 26(79) 84 1019 / 30.10
 16:55 Mostly Cloudy Showers E 9/0 (10/0) 27(81) 80 1019 / 30.10
 15:55 Mostly Cloudy Showers E 9/0 (10/0) 27(81) 77 1019 / 30.09
 14:55 Mostly Cloudy Showers E 11/0 (13/0) 27(80) 81 1019 / 30.10
 13:55 Mostly Cloudy Showers E 10/0 (12/0) 28(82) 79 1020 / 30.12
 12:55 Overcast Showers E 10/0 (12/0) 27(80) 75 1020 / 30.12
 11:55 Mostly Cloudy  ENE 11/0 (13/0) 27(80) 75 1020 / 30.13
 10:55 Overcast Showers E 10/0 (12/0) 26(78) 83 1020 / 30.13
 09:55 Mostly Cloudy Showers E 11/0 (13/0) 26(78) 80 1020 / 30.13
 09:39 Overcast Showers E 11/0 (13/0) 25(77) 83 1020 / 30.13
 08:55 Overcast Showers ENE 8/0 (9/0) 25(77) 86 1020 / 30.12
 08:37 Overcast Showers E 9/0 (10/0) 25(77) 87 1020 / 30.11
 07:55 Overcast Showers NE 10/0 (12/0) 24(75) 90 1019 / 30.10
 07:46 Overcast Showers NE 10/0 (12/0) 24(75) 91 1019 / 30.10
 07:18 Mostly Cloudy Showers ENE 11/0 (13/0) 24(75) 90 1019 / 30.09
 07:06 Overcast Showers NE 6/0 (7/0) 24(76) 91 1019 / 30.09
 06:55 Mostly Cloudy Showers NE 8/0 (9/0) 25(76) 89 1019 / 30.08
 05:55 Mostly Cloudy Showers ENE 9/0 (10/0) 25(77) 88 1018 / 30.06
 04:55 Mostly Cloudy Showers E 6/0 (7/0) 26(78) 87 1018 / 30.06
 03:55 Mostly Cloudy  ENE 7/0 (8/0) 26(78) 84 1018 / 30.06
 02:55 Mostly Cloudy Showers ENE 7/0 (8/0) 25(78) 84 1018 / 30.07
 01:55 Mostly Cloudy Showers ENE 7/0 (8/0) 26(78) 84 1019 / 30.08
 00:55 Mostly Cloudy Showers ENE 9/0 (10/0) 25(78) 88 1019 / 30.08
 23:55 Mostly Cloudy Showers ENE 9/0 (10/0) 26(78) 89 1018 / 30.07
 22:55 Mostly Cloudy Showers NE 8/0 (9/0) 26(78) 84 1018 / 30.07
 22:19 Mostly Cloudy Showers ENE 9/0 (10/0) 26(78) 88 1018 / 30.06
 21:55 Mostly Cloudy Showers NE 11/0 (13/0) 26(78) 89 1018 / 30.07
 20:55 Mostly Cloudy Showers NNE 5/0 (6/0) 27(80) 85 1017 / 30.04
 19:55 Partly Cloudy  NNE 5/0 (6/0) 27(80) 83 1017 / 30.02
 18:55 Partly Cloudy  NNW 5/0 (6/0) 27(81) 78 1017 / 30.02
 17:55 Partly Cloudy  VRB 2/0 (2/0) 29(84) 74 1016 / 30.01
 16:55 Partly Cloudy  N 6/0 (7/0) 28(82) 78 1016 / 30.00
 15:55 Partly Cloudy  NW 4/0 (5/0) 29(84) 76 1016 / 30.01
 14:55 Mostly Cloudy  NW 5/0 (6/0) 29(85) 77 1017 / 30.02
 13:55 Partly Cloudy Showers NW 4/0 (5/0) 29(84) 81 1017 / 30.02
 12:55 Few Clouds  NW 6/0 (7/0) 29(84) 78 1017 / 30.03
 11:55 Few Clouds  WNW 7/0 (8/0) 29(84) 79 1017 / 30.02
 10:55 Few Clouds  NW 8/0 (9/0) 29(83) 78 1017 / 30.02
 09:55 Few Clouds  W 9/0 (10/0) 28(83) 83 1016 / 30.01
 08:55 Few Clouds  W 9/0 (10/0) 28(82) 85 1016 / 29.99
 07:55 Few Clouds  W 10/0 (12/0) 27(81) 84 1015 / 29.98
 06:55 Partly Cloudy Showers W 9/0 (10/0) 27(81) 87 1014 / 29.95
 05:55 Partly Cloudy  W 9/0 (10/0) 27(80) 87 1014 / 29.94
 04:55 Mostly Cloudy  W 11/0 (13/0) 27(81) 85 1013 / 29.92
 03:55 Mostly Cloudy  W 11/0 (13/0) 27(81) 87 1013 / 29.92
 02:55 Mostly Cloudy Showers NW 8/0 (9/0) 26(79) 88 1013 / 29.92
 01:55 Mostly Cloudy Showers W 15/0 (17/0) 27(80) 87 1013 / 29.92
 00:55 Mostly Cloudy Showers W 18/0 (21/0) 26(80) 85 1013 / 29.91
 23:55 Mostly Cloudy  W 17/0 (20/0) 28(82) 86 1012 / 29.89
Island AWOS